Time;durP1;ratioP1;P1;durP2;ratioP2;P2;SDS_P1;SDS_P2;PMS_P1;PMS_P2;Temp;Humidity;BMP_temperature;BMP_pressure;BME280_temperature;BME280_humidity;BME280_pressure;Samples;Min_cycle;Max_cycle;Signal;HPM_P1;HPM_P2
2022/04/01 00:00:47;;;;;;;10.10;4.00;;;;;;;;;;5037081;28;20429;-75
2022/04/01 00:03:13;;;;;;;6.78;3.88;;;;;;;;;;5037183;28;20025;-75
2022/04/01 00:05:40;;;;;;;6.05;3.95;;;;;;;;;;5054852;28;20078;-75
2022/04/01 00:08:06;;;;;;;7.68;4.05;;;;;;;;;;5054970;28;20028;-75
2022/04/01 00:10:32;;;;;;;6.10;4.35;;;;;;;;;;5054937;28;20080;-75
2022/04/01 00:12:58;;;;;;;6.82;4.40;;;;;;;;;;5057630;28;20378;-75
2022/04/01 00:15:25;;;;;;;6.38;4.32;;;;;;;;;;5074711;28;20481;-75
2022/04/01 00:17:51;;;;;;;6.88;3.58;;;;;;;;;;5074814;28;20017;-75
2022/04/01 00:20:20;;;;;;;7.30;4.38;;;;;;;;;;5074607;28;20025;-74
2022/04/01 00:22:47;;;;;;;7.05;4.70;;;;;;;;;;5074428;28;20029;-75
2022/04/01 00:25:14;;;;;;;9.75;5.25;;;;;;;;;;5074396;28;20107;-75
2022/04/01 00:27:40;;;;;;;8.90;5.03;;;;;;;;;;5074256;28;20112;-75
2022/04/01 00:30:06;;;;;;;8.23;4.47;;;;;;;;;;5074308;28;20107;-74
2022/04/01 00:32:33;;;;;;;7.18;4.82;;;;;;;;;;5074520;28;20020;-75
2022/04/01 00:34:59;;;;;;;8.80;5.28;;;;;;;;;;5074375;28;20135;-75
2022/04/01 00:37:26;;;;;;;7.55;5.28;;;;;;;;;;5074463;28;20031;-74
2022/04/01 00:39:52;;;;;;;9.45;5.07;;;;;;;;;;5073721;28;20059;-74
2022/04/01 00:42:18;;;;;;;7.13;4.78;;;;;;;;;;5057968;28;20064;-74
2022/04/01 00:44:44;;;;;;;9.80;5.60;;;;;;;;;;5054622;28;20037;-74
2022/04/01 00:47:14;;;;;;;9.07;6.22;;;;;;;;;;5054352;28;20070;-74
2022/04/01 00:49:40;;;;;;;7.95;5.60;;;;;;;;;;5053978;28;20103;-74
2022/04/01 00:52:07;;;;;;;9.82;5.60;;;;;;;;;;5053913;28;20100;-74
2022/04/01 00:54:35;;;;;;;9.00;5.07;;;;;;;;;;5053944;28;20071;-74
2022/04/01 00:57:02;;;;;;;8.90;5.40;;;;;;;;;;5053930;28;20108;-74
2022/04/01 00:59:28;;;;;;;9.07;5.38;;;;;;;;;;5053915;28;20024;-74
2022/04/01 01:01:54;;;;;;;6.50;4.05;;;;;;;;;;5053975;28;20242;-74
2022/04/01 01:04:20;;;;;;;8.35;4.75;;;;;;;;;;5053725;28;20159;-74
2022/04/01 01:06:48;;;;;;;7.05;4.95;;;;;;;;;;5053614;28;20021;-74
2022/04/01 01:09:14;;;;;;;7.80;4.50;;;;;;;;;;5053585;28;20090;-74
2022/04/01 01:11:41;;;;;;;6.70;4.53;;;;;;;;;;5053528;28;20059;-74
2022/04/01 01:14:11;;;;;;;7.57;4.78;;;;;;;;;;5066053;28;20025;-74
2022/04/01 01:16:40;;;;;;;7.07;4.70;;;;;;;;;;5073575;28;20103;-74
2022/04/01 01:19:10;;;;;;;8.70;4.40;;;;;;;;;;5073450;28;20024;-74
2022/04/01 01:21:37;;;;;;;8.82;5.45;;;;;;;;;;5073348;28;20024;-74
2022/04/01 01:24:07;;;;;;;6.68;4.50;;;;;;;;;;5073559;28;20108;-74
2022/04/01 01:26:34;;;;;;;8.40;5.38;;;;;;;;;;5073216;28;20082;-74
2022/04/01 01:29:00;;;;;;;7.05;5.13;;;;;;;;;;5073254;28;20397;-74
2022/04/01 01:31:27;;;;;;;8.43;4.20;;;;;;;;;;5073265;28;20032;-74
2022/04/01 01:33:57;;;;;;;6.80;4.82;;;;;;;;;;5073276;28;20022;-74
2022/04/01 01:36:24;;;;;;;7.75;5.07;;;;;;;;;;5073110;28;20039;-74
2022/04/01 01:38:50;;;;;;;8.20;5.07;;;;;;;;;;5073227;28;20136;-74
2022/04/01 01:41:16;;;;;;;6.10;4.10;;;;;;;;;;5065028;28;20036;-73
2022/04/01 01:43:43;;;;;;;8.52;5.20;;;;;;;;;;5035190;28;20029;-74
2022/04/01 01:46:09;;;;;;;8.07;5.75;;;;;;;;;;5053081;28;20025;-74
2022/04/01 01:48:35;;;;;;;7.53;4.20;;;;;;;;;;5052879;28;20025;-73
2022/04/01 01:56:31;;;;;;;8.23;5.45;;;;;;;;;;5052762;28;20028;-73
2022/04/01 01:58:57;;;;;;;6.95;4.85;;;;;;;;;;5052843;28;20021;-73
2022/04/01 02:01:23;;;;;;;12.48;5.25;;;;;;;;;;5052681;28;20041;-73
2022/04/01 02:03:51;;;;;;;10.07;5.28;;;;;;;;;;5052808;28;20032;-73
2022/04/01 02:06:17;;;;;;;7.47;4.97;;;;;;;;;;5052628;28;20017;-73
2022/04/01 02:08:43;;;;;;;7.65;4.63;;;;;;;;;;5052659;28;20040;-73
2022/04/01 02:11:09;;;;;;;6.95;4.75;;;;;;;;;;5052452;28;20059;-73
2022/04/01 02:13:35;;;;;;;6.45;4.82;;;;;;;;;;5060533;28;20021;-73
2022/04/01 02:16:01;;;;;;;6.72;4.90;;;;;;;;;;5072444;28;20024;-73
2022/04/01 02:18:27;;;;;;;6.28;4.45;;;;;;;;;;5072457;28;20439;-73
2022/04/01 02:20:54;;;;;;;7.15;4.80;;;;;;;;;;5072141;28;20031;-73
2022/04/01 02:23:20;;;;;;;14.40;4.47;;;;;;;;;;5054361;28;20024;-73
2022/04/01 02:25:47;;;;;;;9.75;4.57;;;;;;;;;;5071931;28;20052;-73
2022/04/01 02:28:13;;;;;;;7.47;4.60;;;;;;;;;;5072244;28;20455;-73
2022/04/01 02:30:39;;;;;;;6.95;5.10;;;;;;;;;;5072004;28;20067;-73
2022/04/01 02:33:08;;;;;;;6.15;4.57;;;;;;;;;;5072270;28;20096;-74
2022/04/01 02:35:35;;;;;;;7.00;4.63;;;;;;;;;;5072076;28;20107;-73
2022/04/01 02:38:01;;;;;;;9.48;4.32;;;;;;;;;;5072046;28;20021;-73
2022/04/01 02:40:28;;;;;;;7.30;4.90;;;;;;;;;;5070807;28;20043;-73
2022/04/01 02:42:54;;;;;;;6.55;4.68;;;;;;;;;;5051963;28;20037;-73
2022/04/01 02:45:21;;;;;;;6.78;4.18;;;;;;;;;;5051987;28;20387;-73
2022/04/01 02:47:48;;;;;;;7.15;4.85;;;;;;;;;;5051884;28;20095;-73
2022/04/01 02:50:14;;;;;;;5.97;4.05;;;;;;;;;;5033802;28;20049;-73
2022/04/01 02:52:40;;;;;;;7.82;4.57;;;;;;;;;;5051912;28;20013;-73
2022/04/01 02:55:07;;;;;;;7.18;4.35;;;;;;;;;;5051762;28;20036;-73
2022/04/01 02:57:33;;;;;;;7.55;4.70;;;;;;;;;;5051739;28;20024;-73
2022/04/01 02:59:59;;;;;;;5.90;3.95;;;;;;;;;;5051718;28;20028;-73
2022/04/01 03:02:25;;;;;;;6.65;3.85;;;;;;;;;;5051217;28;20025;-73
2022/04/01 03:04:51;;;;;;;5.88;3.60;;;;;;;;;;5033741;28;20098;-73
2022/04/01 03:07:18;;;;;;;6.63;4.20;;;;;;;;;;5051559;28;20024;-73
2022/04/01 03:09:44;;;;;;;5.28;3.35;;;;;;;;;;5051603;28;20082;-73
2022/04/01 03:12:11;;;;;;;6.32;3.90;;;;;;;;;;5051469;28;20044;-73
2022/04/01 03:14:37;;;;;;;5.68;3.35;;;;;;;;;;5068131;28;20032;-73
2022/04/01 03:17:03;;;;;;;5.80;3.53;;;;;;;;;;5071569;28;20481;-73
2022/04/01 03:19:30;;;;;;;6.13;3.88;;;;;;;;;;5071524;28;20028;-73
2022/04/01 03:21:57;;;;;;;5.50;3.30;;;;;;;;;;5071599;28;20558;-73
2022/04/01 03:24:23;;;;;;;6.28;4.03;;;;;;;;;;5071327;28;20262;-73
2022/04/01 03:26:49;;;;;;;5.75;3.35;;;;;;;;;;5071401;28;20059;-73
2022/04/01 03:29:16;;;;;;;6.32;4.00;;;;;;;;;;5071432;28;20021;-73
2022/04/01 03:31:42;;;;;;;7.53;3.85;;;;;;;;;;5071552;28;20039;-73
2022/04/01 03:34:08;;;;;;;5.78;3.65;;;;;;;;;;5053281;28;20463;-73
2022/04/01 03:36:34;;;;;;;6.40;3.72;;;;;;;;;;5071338;28;20025;-73
2022/04/01 03:39:01;;;;;;;7.18;4.05;;;;;;;;;;5071252;28;20036;-73
2022/04/01 03:41:29;;;;;;;6.40;3.63;;;;;;;;;;5071193;28;20036;-73
2022/04/01 03:43:55;;;;;;;7.18;3.83;;;;;;;;;;5071388;28;20107;-73
2022/04/01 03:46:24;;;;;;;4.88;3.40;;;;;;;;;;5071289;28;20477;-73
2022/04/01 03:48:56;;;;;;;7.63;3.78;;;;;;;;;;5071264;28;20098;-73
2022/04/01 03:51:25;;;;;;;4.75;3.25;;;;;;;;;;5071107;28;20124;-73
2022/04/01 03:54:10;;;;;;;8.65;4.32;;;;;;;;;;5071263;28;20017;-73
2022/04/01 03:56:37;;;;;;;6.47;3.45;;;;;;;;;;5071203;28;20501;-73
2022/04/01 03:59:03;;;;;;;6.47;3.15;;;;;;;;;;5071237;28;20032;-73
2022/04/01 04:01:29;;;;;;;8.55;3.72;;;;;;;;;;5071265;28;20028;-73
2022/04/01 04:03:56;;;;;;;7.82;3.30;;;;;;;;;;5071126;28;20403;-73
2022/04/01 04:06:22;;;;;;;10.00;3.35;;;;;;;;;;5071102;28;20025;-73
2022/04/01 04:08:50;;;;;;;5.78;3.35;;;;;;;;;;5071096;28;20040;-73
2022/04/01 04:11:18;;;;;;;6.25;3.35;;;;;;;;;;5071017;28;20016;-73
2022/04/01 04:13:45;;;;;;;5.15;3.25;;;;;;;;;;5072732;28;20036;-73
2022/04/01 04:16:19;;;;;;;6.95;3.50;;;;;;;;;;5074771;28;20109;-73
2022/04/01 04:18:49;;;;;;;5.75;3.35;;;;;;;;;;5074591;28;20377;-73
2022/04/01 04:21:18;;;;;;;4.72;3.08;;;;;;;;;;5074633;28;20028;-73
2022/04/01 04:23:48;;;;;;;4.90;2.90;;;;;;;;;;5074751;28;20103;-73
2022/04/01 04:26:16;;;;;;;6.72;3.38;;;;;;;;;;5074311;28;20608;-73
2022/04/01 04:28:48;;;;;;;5.50;3.22;;;;;;;;;;5074559;28;20074;-73
2022/04/01 04:31:14;;;;;;;8.90;4.50;;;;;;;;;;5074322;28;20108;-73
2022/04/01 04:33:45;;;;;;;8.68;3.50;;;;;;;;;;5074226;28;20055;-73
2022/04/01 04:36:11;;;;;;;8.93;3.78;;;;;;;;;;5074118;28;20097;-73
2022/04/01 04:38:38;;;;;;;5.93;3.67;;;;;;;;;;5074110;28;20031;-73
2022/04/01 04:41:08;;;;;;;5.95;3.78;;;;;;;;;;5073906;28;20373;-73
2022/04/01 04:43:38;;;;;;;6.28;3.70;;;;;;;;;;5073999;28;20025;-73
2022/04/01 04:46:04;;;;;;;5.10;3.50;;;;;;;;;;5073977;28;20017;-73
2022/04/01 04:48:31;;;;;;;5.55;3.35;;;;;;;;;;5073785;28;20032;-73
2022/04/01 04:50:59;;;;;;;5.60;3.30;;;;;;;;;;5073616;28;20064;-73
2022/04/01 04:53:28;;;;;;;5.72;3.30;;;;;;;;;;5074072;28;20062;-73
2022/04/01 04:55:54;;;;;;;6.75;3.63;;;;;;;;;;5073762;28;20056;-73
2022/04/01 04:58:22;;;;;;;4.82;3.28;;;;;;;;;;5073917;28;20112;-73
2022/04/01 05:00:53;;;;;;;4.75;3.20;;;;;;;;;;5073807;28;20028;-73
2022/04/01 05:03:25;;;;;;;7.15;4.05;;;;;;;;;;5073795;28;20024;-73
2022/04/01 05:05:51;;;;;;;7.05;3.10;;;;;;;;;;5073702;28;20032;-73
2022/04/01 05:08:26;;;;;;;5.20;3.05;;;;;;;;;;5073607;28;20031;-73
2022/04/01 05:10:55;;;;;;;5.80;3.25;;;;;;;;;;5073397;28;20024;-74
2022/04/01 05:13:36;;;;;;;6.47;3.42;;;;;;;;;;5073458;28;20021;-74
2022/04/01 05:16:05;;;;;;;4.93;3.38;;;;;;;;;;5073592;28;20074;-73
2022/04/01 05:18:48;;;;;;;5.82;3.15;;;;;;;;;;5073670;28;20122;-74
2022/04/01 05:21:22;;;;;;;7.32;3.53;;;;;;;;;;5053250;28;20033;-73
2022/04/01 05:24:08;;;;;;;5.88;3.25;;;;;;;;;;5053287;28;20032;-74
2022/04/01 05:26:45;;;;;;;4.32;2.97;;;;;;;;;;5052640;28;20036;-74
2022/04/01 05:29:13;;;;;;;6.10;3.40;;;;;;;;;;5053275;28;20090;-74
2022/04/01 05:31:52;;;;;;;6.60;3.38;;;;;;;;;;5070774;28;20032;-74
2022/04/01 05:34:38;;;;;;;5.95;3.42;;;;;;;;;;5073306;28;20424;-74
2022/04/01 05:37:05;;;;;;;9.70;3.22;;;;;;;;;;5073118;28;20029;-74
2022/04/01 05:39:32;;;;;;;6.10;3.00;;;;;;;;;;5073065;28;20037;-74
2022/04/01 05:41:58;;;;;;;4.63;3.08;;;;;;;;;;5072715;28;20028;-74
2022/04/01 05:44:26;;;;;;;4.95;3.42;;;;;;;;;;5072965;28;20029;-74
2022/04/01 05:46:53;;;;;;;9.35;3.70;;;;;;;;;;5073061;28;20020;-74
2022/04/01 05:49:21;;;;;;;8.07;3.72;;;;;;;;;;5072976;28;20063;-73
2022/04/01 05:51:48;;;;;;;7.05;3.15;;;;;;;;;;5072697;28;20097;-74
2022/04/01 05:54:19;;;;;;;9.57;4.13;;;;;;;;;;5072787;28;20363;-74
2022/04/01 05:56:48;;;;;;;7.95;3.63;;;;;;;;;;5072734;28;20059;-73
2022/04/01 05:59:15;;;;;;;4.18;2.97;;;;;;;;;;5072441;28;20382;-74
2022/04/01 06:01:47;;;;;;;7.53;3.80;;;;;;;;;;5072695;28;20035;-74
2022/04/01 06:04:39;;;;;;;6.40;3.70;;;;;;;;;;5072730;28;20033;-73
2022/04/01 06:07:27;;;;;;;4.88;3.20;;;;;;;;;;5041759;28;20090;-74
2022/04/01 06:09:53;;;;;;;5.20;3.15;;;;;;;;;;5072626;28;20024;-74
2022/04/01 06:12:29;;;;;;;7.72;3.40;;;;;;;;;;5072295;28;20016;-74
2022/04/01 06:14:59;;;;;;;6.18;3.40;;;;;;;;;;5072148;28;20025;-74
2022/04/01 06:17:37;;;;;;;7.80;3.53;;;;;;;;;;5072394;28;20062;-74
2022/04/01 06:20:07;;;;;;;7.30;3.85;;;;;;;;;;5050884;28;20032;-74
2022/04/01 06:22:36;;;;;;;8.55;3.08;;;;;;;;;;5052690;28;20308;-74
2022/04/01 06:25:12;;;;;;;7.78;3.50;;;;;;;;;;5052172;28;20048;-74
2022/04/01 06:27:40;;;;;;;5.43;3.00;;;;;;;;;;5052078;28;20455;-74
2022/04/01 06:30:07;;;;;;;9.10;3.10;;;;;;;;;;5056653;28;20382;-74
2022/04/01 06:32:53;;;;;;;8.10;3.30;;;;;;;;;;5072232;28;20024;-74
2022/04/01 06:35:26;;;;;;;7.85;2.85;;;;;;;;;;5071971;28;20077;-74
2022/04/01 06:37:51;;;;;;;;;;;;;;;;;;5071525;28;20031;-74
2022/04/01 06:40:21;;;;;;;5.75;3.03;;;;;;;;;;5071873;28;19991;-74
2022/04/01 06:42:50;;;;;;;5.85;3.13;;;;;;;;;;5052001;28;20036;-74
2022/04/01 06:45:16;;;;;;;5.55;3.40;;;;;;;;;;5051803;28;20452;-74
2022/04/01 06:47:44;;;;;;;5.20;2.60;;;;;;;;;;5052042;28;20092;-74
2022/04/01 06:50:10;;;;;;;8.93;3.60;;;;;;;;;;5051694;28;20039;-73
2022/04/01 06:52:36;;;;;;;5.45;3.20;;;;;;;;;;5051772;28;20082;-74
2022/04/01 06:55:02;;;;;;;9.95;2.83;;;;;;;;;;5051874;28;20183;-74
2022/04/01 06:57:28;;;;;;;6.55;2.75;;;;;;;;;;5051648;28;20033;-74
2022/04/01 06:59:54;;;;;;;4.70;2.35;;;;;;;;;;5051596;28;20367;-74
2022/04/01 07:02:20;;;;;;;4.68;2.50;;;;;;;;;;5051939;28;20017;-74
2022/04/01 07:04:46;;;;;;;6.10;2.75;;;;;;;;;;5051484;28;20021;-74
2022/04/01 07:07:13;;;;;;;5.97;2.97;;;;;;;;;;5051700;28;20055;-74
2022/04/01 07:09:39;;;;;;;4.00;2.45;;;;;;;;;;5051670;28;20021;-74
2022/04/01 07:12:06;;;;;;;3.72;2.22;;;;;;;;;;5051450;28;20108;-73
2022/04/01 07:14:32;;;;;;;3.30;2.00;;;;;;;;;;5067462;28;20099;-74
2022/04/01 07:16:58;;;;;;;4.63;2.22;;;;;;;;;;5071510;28;20573;-74
2022/04/01 07:19:25;;;;;;;3.15;2.00;;;;;;;;;;5071430;28;20024;-74
2022/04/01 07:21:51;;;;;;;6.70;1.80;;;;;;;;;;5071386;28;20115;-73
2022/04/01 07:24:17;;;;;;;5.80;2.17;;;;;;;;;;5071918;28;20122;-73
2022/04/01 07:26:44;;;;;;;3.58;1.80;;;;;;;;;;5071120;28;20143;-73
2022/04/01 07:29:11;;;;;;;3.30;2.05;;;;;;;;;;5071449;28;20034;-74
2022/04/01 07:34:32;;;;;;;3.85;2.42;;;;;;;;;;5071719;28;20043;-73
2022/04/01 07:36:58;;;;;;;6.53;2.05;;;;;;;;;;5071843;28;20107;-74
2022/04/01 07:39:24;;;;;;;4.85;2.25;;;;;;;;;;5071361;28;20036;-74
2022/04/01 07:41:51;;;;;;;6.95;2.35;;;;;;;;;;5071425;28;20032;-74
2022/04/01 07:44:17;;;;;;;4.38;2.30;;;;;;;;;;5071506;28;20025;-73
2022/04/01 07:46:43;;;;;;;5.82;2.70;;;;;;;;;;5071233;28;20129;-76
2022/04/01 07:49:09;;;;;;;5.53;2.28;;;;;;;;;;5073758;28;20759;-75
2022/04/01 07:51:35;;;;;;;4.32;2.30;;;;;;;;;;5074996;28;20044;-75
2022/04/01 07:54:01;;;;;;;4.40;2.22;;;;;;;;;;5074971;28;20434;-75
2022/04/01 07:56:30;;;;;;;5.38;1.85;;;;;;;;;;5075116;28;20679;-75
2022/04/01 07:58:57;;;;;;;5.03;2.47;;;;;;;;;;5074750;28;20071;-76
2022/04/01 08:01:24;;;;;;;4.97;1.90;;;;;;;;;;5075122;28;20198;-76
2022/04/01 08:03:50;;;;;;;4.20;2.10;;;;;;;;;;5074981;28;20032;-75
2022/04/01 08:06:16;;;;;;;6.60;2.13;;;;;;;;;;5074762;28;20016;-76
2022/04/01 08:08:42;;;;;;;5.57;2.03;;;;;;;;;;5075135;28;20382;-75
2022/04/01 08:11:08;;;;;;;7.25;2.00;;;;;;;;;;5074630;28;20035;-76
2022/04/01 08:13:34;;;;;;;6.95;2.22;;;;;;;;;;5074735;28;20023;-76
2022/04/01 08:16:01;;;;;;;8.27;2.08;;;;;;;;;;5074722;28;20024;-75
2022/04/01 08:18:27;;;;;;;4.32;2.00;;;;;;;;;;5074757;28;20091;-75
2022/04/01 08:20:53;;;;;;;3.08;1.73;;;;;;;;;;5074466;28;20023;-75
2022/04/01 08:23:19;;;;;;;6.13;1.77;;;;;;;;;;5074876;28;20064;-75
2022/04/01 08:25:49;;;;;;;4.40;1.65;;;;;;;;;;5074485;28;20031;-75
2022/04/01 08:28:15;;;;;;;3.58;1.50;;;;;;;;;;5074684;28;20300;-75
2022/04/01 08:30:41;;;;;;;3.95;1.55;;;;;;;;;;5074518;28;20078;-75
2022/04/01 08:33:08;;;;;;;3.47;1.55;;;;;;;;;;5074575;28;20028;-75
2022/04/01 08:35:35;;;;;;;6.43;1.50;;;;;;;;;;5074413;28;20024;-75
2022/04/01 08:38:01;;;;;;;4.85;1.38;;;;;;;;;;5074342;28;20051;-75
2022/04/01 08:40:29;;;;;;;3.88;1.50;;;;;;;;;;5074183;28;20036;-75
2022/04/01 08:42:55;;;;;;;2.72;1.20;;;;;;;;;;5074241;28;20017;-75
2022/04/01 08:45:21;;;;;;;2.88;1.10;;;;;;;;;;5074223;28;20028;-75
2022/04/01 08:47:48;;;;;;;2.72;0.90;;;;;;;;;;5074273;28;20116;-75
2022/04/01 08:50:15;;;;;;;1.80;0.98;;;;;;;;;;5073692;28;20095;-75
2022/04/01 08:52:42;;;;;;;1.98;0.93;;;;;;;;;;5074010;28;20078;-75
2022/04/01 08:55:09;;;;;;;2.67;0.95;;;;;;;;;;5074089;28;20033;-75
2022/04/01 08:57:36;;;;;;;2.63;0.73;;;;;;;;;;5073895;28;20413;-74
2022/04/01 09:00:03;;;;;;;1.35;0.77;;;;;;;;;;5072839;28;20396;-75
2022/04/01 09:02:29;;;;;;;1.95;0.98;;;;;;;;;;5055876;28;20111;-75
2022/04/01 09:05:05;;;;;;;1.67;1.00;;;;;;;;;;5073817;28;20066;-75
2022/04/01 09:07:31;;;;;;;3.47;1.13;;;;;;;;;;5073885;28;20021;-76
2022/04/01 09:10:01;;;;;;;1.38;1.02;;;;;;;;;;5073708;28;20028;-75
2022/04/01 09:12:29;;;;;;;4.22;1.50;;;;;;;;;;5073616;28;20073;-75
2022/04/01 09:14:55;;;;;;;3.97;1.20;;;;;;;;;;5073516;28;20038;-75
2022/04/01 09:17:22;;;;;;;1.90;1.20;;;;;;;;;;5055587;28;20081;-74
2022/04/01 09:19:48;;;;;;;1.92;0.98;;;;;;;;;;5073596;28;20025;-75
2022/04/01 09:22:15;;;;;;;2.33;1.20;;;;;;;;;;5073461;28;20402;-75
2022/04/01 09:24:52;;;;;;;4.55;1.30;;;;;;;;;;5073463;28;20044;-75
2022/04/01 09:27:18;;;;;;;3.30;1.40;;;;;;;;;;5073291;28;20032;-75
2022/04/01 09:29:45;;;;;;;3.75;1.42;;;;;;;;;;5073294;28;20024;-75
2022/04/01 09:32:11;;;;;;;3.17;1.52;;;;;;;;;;5073571;28;20161;-75
2022/04/01 09:34:40;;;;;;;4.78;1.60;;;;;;;;;;5073469;28;20445;-75
2022/04/01 09:37:08;;;;;;;2.67;1.10;;;;;;;;;;5073168;28;20024;-76
2022/04/01 09:39:34;;;;;;;4.13;1.42;;;;;;;;;;5073191;28;20036;-75
2022/04/01 09:42:00;;;;;;;2.63;1.50;;;;;;;;;;5059339;28;20036;-75
2022/04/01 09:44:30;;;;;;;3.33;1.60;;;;;;;;;;5053439;28;20056;-76
2022/04/01 09:46:57;;;;;;;6.32;1.90;;;;;;;;;;5053400;28;20025;-76
2022/04/01 09:49:34;;;;;;;4.07;1.73;;;;;;;;;;5053200;28;20245;-76
2022/04/01 09:52:00;;;;;;;5.60;1.85;;;;;;;;;;5053322;28;20045;-76
2022/04/01 09:54:26;;;;;;;5.18;1.80;;;;;;;;;;5053451;28;20025;-76
2022/04/01 09:56:56;;;;;;;2.95;1.70;;;;;;;;;;5053119;28;20028;-76
2022/04/01 09:59:24;;;;;;;5.65;1.83;;;;;;;;;;5035404;28;20017;-76
2022/04/01 10:01:50;;;;;;;4.70;1.98;;;;;;;;;;5053630;28;20013;-76
2022/04/01 10:04:16;;;;;;;2.13;1.60;;;;;;;;;;5053654;28;20017;-76
2022/04/01 10:06:43;;;;;;;6.25;1.90;;;;;;;;;;5053750;28;20053;-76
2022/04/01 10:09:12;;;;;;;3.00;1.67;;;;;;;;;;5053849;28;20067;-75
2022/04/01 10:11:40;;;;;;;2.67;1.75;;;;;;;;;;5053712;28;20459;-77
2022/04/01 10:14:11;;;;;;;3.50;1.80;;;;;;;;;;5066680;28;20382;-76
2022/04/01 10:16:41;;;;;;;3.25;2.03;;;;;;;;;;5074447;28;20039;-76
2022/04/01 10:19:11;;;;;;;3.83;1.83;;;;;;;;;;5073466;28;20366;-76
2022/04/01 10:21:39;;;;;;;4.70;2.17;;;;;;;;;;5055108;28;20328;-76
2022/04/01 10:24:14;;;;;;;5.28;2.47;;;;;;;;;;5073353;28;20028;-76
2022/04/01 10:26:42;;;;;;;4.65;1.88;;;;;;;;;;5073551;28;20074;-76
2022/04/01 10:29:09;;;;;;;4.05;2.17;;;;;;;;;;5073711;28;20098;-76
2022/04/01 10:31:35;;;;;;;7.63;2.47;;;;;;;;;;5055376;28;20360;-76
2022/04/01 10:34:21;;;;;;;7.15;2.38;;;;;;;;;;5073658;28;20486;-76
2022/04/01 10:36:54;;;;;;;9.95;2.90;;;;;;;;;;5073441;28;20042;-76
2022/04/01 10:39:20;;;;;;;4.18;2.38;;;;;;;;;;5073624;28;20104;-76
2022/04/01 10:42:05;;;;;;;5.05;2.30;;;;;;;;;;5073906;28;20027;-76
2022/04/01 10:44:54;;;;;;;3.67;2.47;;;;;;;;;;5073572;28;20066;-76
2022/04/01 10:47:24;;;;;;;3.97;2.30;;;;;;;;;;5073416;28;20095;-76
2022/04/01 10:52:36;;;;;;;5.53;2.78;;;;;;;;;;5053451;28;20075;-76
2022/04/01 10:55:09;;;;;;;6.03;2.22;;;;;;;;;;5053024;28;20021;-76
2022/04/01 10:57:50;;;;;;;3.10;2.05;;;;;;;;;;5053618;28;20040;-76
2022/04/01 11:00:17;;;;;;;3.53;2.35;;;;;;;;;;5053302;28;20036;-76
2022/04/01 11:02:44;;;;;;;4.18;2.45;;;;;;;;;;5053232;28;20020;-76
2022/04/01 11:05:27;;;;;;;4.03;2.42;;;;;;;;;;5035090;28;20025;-76
2022/04/01 11:08:12;;;;;;;6.15;2.40;;;;;;;;;;5053112;28;20044;-76
2022/04/01 11:10:38;;;;;;;6.60;2.65;;;;;;;;;;5052864;28;20033;-76
2022/04/01 11:13:04;;;;;;;5.38;2.47;;;;;;;;;;5049336;28;20032;-76
2022/04/01 11:15:30;;;;;;;7.13;2.50;;;;;;;;;;5033571;28;20148;-76
2022/04/01 11:17:56;;;;;;;4.30;2.67;;;;;;;;;;5033101;28;20038;-77
2022/04/01 11:20:22;;;;;;;6.25;2.55;;;;;;;;;;5033134;28;20025;-77
2022/04/01 11:22:54;;;;;;;4.13;2.72;;;;;;;;;;5032581;28;20491;-76
2022/04/01 11:25:23;;;;;;;4.25;2.15;;;;;;;;;;5032758;28;20037;-76
2022/04/01 11:27:50;;;;;;;5.70;2.47;;;;;;;;;;5033209;28;20468;-76
2022/04/01 11:30:19;;;;;;;7.00;2.83;;;;;;;;;;5032741;28;20045;-76
2022/04/01 11:32:47;;;;;;;6.68;3.08;;;;;;;;;;5032930;28;20041;-76
2022/04/01 11:35:17;;;;;;;4.65;2.70;;;;;;;;;;5032895;28;20021;-76
2022/04/01 11:37:44;;;;;;;4.90;2.75;;;;;;;;;;5015430;28;20029;-76
2022/04/01 11:40:15;;;;;;;7.57;2.88;;;;;;;;;;5032876;28;20053;-76
2022/04/01 11:43:02;;;;;;;5.72;2.85;;;;;;;;;;5032672;28;20029;-76
2022/04/01 11:45:29;;;;;;;6.68;3.60;;;;;;;;;;5032827;28;20040;-76
2022/04/01 11:47:55;;;;;;;7.35;3.15;;;;;;;;;;5032617;28;20061;-76
2022/04/01 11:50:22;;;;;;;4.85;3.17;;;;;;;;;;5035692;28;20041;-76
2022/04/01 11:52:58;;;;;;;6.43;3.75;;;;;;;;;;5052351;28;20021;-76
2022/04/01 11:55:28;;;;;;;7.95;3.60;;;;;;;;;;5052567;28;20471;-76
2022/04/01 11:57:56;;;;;;;8.23;3.50;;;;;;;;;;5034571;28;20033;-76
2022/04/01 12:00:29;;;;;;;5.07;3.60;;;;;;;;;;5052457;28;20032;-76
2022/04/01 12:02:55;;;;;;;6.03;3.30;;;;;;;;;;5052602;28;20021;-76
2022/04/01 12:05:22;;;;;;;6.63;3.42;;;;;;;;;;5052285;28;20017;-76
2022/04/01 12:10:39;;;;;;;6.22;3.22;;;;;;;;;;5052600;28;20062;-77
2022/04/01 12:13:07;;;;;;;10.68;3.72;;;;;;;;;;5052289;28;20033;-76
2022/04/01 12:15:41;;;;;;;9.90;3.30;;;;;;;;;;5052425;28;20028;-76
2022/04/01 12:18:12;;;;;;;5.43;3.15;;;;;;;;;;5052613;28;20028;-76
2022/04/01 12:20:39;;;;;;;5.75;3.20;;;;;;;;;;5052165;28;20108;-77
2022/04/01 12:23:06;;;;;;;5.72;3.63;;;;;;;;;;5052166;28;20036;-76
2022/04/01 12:25:33;;;;;;;10.57;3.28;;;;;;;;;;5051956;28;20143;-76
2022/04/01 12:28:09;;;;;;;4.82;3.30;;;;;;;;;;5051980;28;20113;-77
2022/04/01 12:30:37;;;;;;;4.05;3.10;;;;;;;;;;5060666;28;20025;-77
2022/04/01 12:33:07;;;;;;;5.70;3.45;;;;;;;;;;5072232;28;20145;-77
2022/04/01 12:35:34;;;;;;;4.70;2.85;;;;;;;;;;5073217;28;20086;-77
2022/04/01 12:38:04;;;;;;;4.72;2.88;;;;;;;;;;5075349;28;20439;-76
2022/04/01 12:40:45;;;;;;;4.72;3.00;;;;;;;;;;5073719;28;20024;-77
2022/04/01 12:43:30;;;;;;;6.13;3.25;;;;;;;;;;5055632;28;20145;-76
2022/04/01 12:46:09;;;;;;;5.05;3.10;;;;;;;;;;5055451;28;20020;-76
2022/04/01 12:48:50;;;;;;;4.93;3.05;;;;;;;;;;5055111;28;20763;-77
2022/04/01 12:51:30;;;;;;;6.28;3.10;;;;;;;;;;5036488;28;20513;-76
2022/04/01 12:53:56;;;;;;;4.53;2.75;;;;;;;;;;5054889;28;20029;-77
2022/04/01 12:56:23;;;;;;;9.68;3.13;;;;;;;;;;5054791;28;20029;-76
2022/04/01 12:58:56;;;;;;;5.65;3.20;;;;;;;;;;5036761;28;20025;-77
2022/04/01 13:01:26;;;;;;;5.65;3.10;;;;;;;;;;5054621;28;20033;-76
2022/04/01 13:03:53;;;;;;;6.13;2.80;;;;;;;;;;5054435;28;20021;-76
2022/04/01 13:06:23;;;;;;;4.80;2.42;;;;;;;;;;5036923;28;20357;-77
2022/04/01 13:08:57;;;;;;;6.28;2.33;;;;;;;;;;5054748;28;20108;-76
2022/04/01 13:11:23;;;;;;;4.63;2.78;;;;;;;;;;5054990;28;20021;-76
2022/04/01 13:13:53;;;;;;;4.57;2.38;;;;;;;;;;5054774;28;20024;-77
2022/04/01 13:16:19;;;;;;;3.80;2.28;;;;;;;;;;5054550;28;20479;-76
2022/04/01 13:18:45;;;;;;;3.67;2.20;;;;;;;;;;5055369;28;20025;-77
2022/04/01 13:21:12;;;;;;;4.13;2.25;;;;;;;;;;5056499;28;20463;-77
2022/04/01 13:23:38;;;;;;;3.53;2.20;;;;;;;;;;5074663;28;20024;-76
2022/04/01 13:26:05;;;;;;;3.47;1.70;;;;;;;;;;5056364;28;20044;-77
2022/04/01 13:28:31;;;;;;;6.13;2.03;;;;;;;;;;5074639;28;20173;-76
2022/04/01 13:30:58;;;;;;;2.75;1.73;;;;;;;;;;5074370;28;20024;-77
2022/04/01 13:33:24;;;;;;;4.15;1.77;;;;;;;;;;5074472;28;20052;-77
2022/04/01 13:35:51;;;;;;;2.92;1.67;;;;;;;;;;5074226;28;20021;-77
2022/04/01 13:38:17;;;;;;;3.38;1.67;;;;;;;;;;5074557;28;20017;-77
2022/04/01 13:40:43;;;;;;;3.15;1.67;;;;;;;;;;5071201;28;20021;-76
2022/04/01 13:43:10;;;;;;;3.58;1.55;;;;;;;;;;5054166;28;20024;-77
2022/04/01 13:45:39;;;;;;;2.47;1.40;;;;;;;;;;5053694;28;20021;-77
2022/04/01 13:48:06;;;;;;;2.30;1.40;;;;;;;;;;5054135;28;20099;-76
2022/04/01 13:50:32;;;;;;;3.97;1.33;;;;;;;;;;5053896;28;20025;-77
2022/04/01 13:52:58;;;;;;;2.35;1.38;;;;;;;;;;5053890;28;20037;-77
2022/04/01 13:55:24;;;;;;;3.03;1.38;;;;;;;;;;5053632;28;20036;-77
2022/04/01 13:57:50;;;;;;;2.85;1.52;;;;;;;;;;5054142;28;20437;-77
2022/04/01 14:00:16;;;;;;;3.15;1.65;;;;;;;;;;5053645;28;20068;-77
2022/04/01 14:02:43;;;;;;;4.82;1.70;;;;;;;;;;5053663;28;20025;-76
2022/04/01 14:05:10;;;;;;;4.85;1.60;;;;;;;;;;5053537;28;20031;-77
2022/04/01 14:07:37;;;;;;;2.38;1.60;;;;;;;;;;5053539;28;20021;-77
2022/04/01 14:10:03;;;;;;;3.00;1.52;;;;;;;;;;5053690;28;20029;-76
2022/04/01 14:12:30;;;;;;;3.50;1.50;;;;;;;;;;5051891;28;20048;-77
2022/04/01 14:14:56;;;;;;;2.78;1.15;;;;;;;;;;5071989;28;20032;-77
2022/04/01 14:17:23;;;;;;;2.28;1.10;;;;;;;;;;5073303;28;20466;-76
2022/04/01 14:19:49;;;;;;;3.60;1.38;;;;;;;;;;5073153;28;20103;-76
2022/04/01 14:22:15;;;;;;;3.35;1.70;;;;;;;;;;5073233;28;20028;-77
2022/04/01 14:24:41;;;;;;;3.40;1.20;;;;;;;;;;5073477;28;20113;-77
2022/04/01 14:27:07;;;;;;;2.08;1.30;;;;;;;;;;5073298;28;20082;-77
2022/04/01 14:32:18;;;;;;;2.28;1.10;;;;;;;;;;5073307;28;20071;-77
2022/04/01 14:34:45;;;;;;;2.65;1.10;;;;;;;;;;5073197;28;20036;-77
2022/04/01 14:37:11;;;;;;;4.15;1.40;;;;;;;;;;5073269;28;20063;-76
2022/04/01 14:39:38;;;;;;;6.05;1.38;;;;;;;;;;5072740;28;20024;-76
2022/04/01 14:42:04;;;;;;;2.50;1.20;;;;;;;;;;5058378;28;20036;-76
2022/04/01 14:44:30;;;;;;;2.28;1.15;;;;;;;;;;5052666;28;20049;-77
2022/04/01 14:46:56;;;;;;;3.13;1.00;;;;;;;;;;5052974;28;20100;-77
2022/04/01 14:49:22;;;;;;;3.45;1.20;;;;;;;;;;5052819;28;20332;-76
2022/04/01 14:51:48;;;;;;;4.60;1.80;;;;;;;;;;5052616;28;20053;-77
2022/04/01 14:54:18;;;;;;;3.28;1.38;;;;;;;;;;5052535;28;20124;-77
2022/04/01 14:56:44;;;;;;;5.55;1.70;;;;;;;;;;5052609;28;20045;-76
2022/04/01 14:59:11;;;;;;;4.88;1.50;;;;;;;;;;5051570;28;20033;-77
2022/04/01 15:01:37;;;;;;;3.45;1.23;;;;;;;;;;5052571;28;20043;-77
2022/04/01 15:04:04;;;;;;;3.30;1.42;;;;;;;;;;5052646;28;20486;-77
2022/04/01 15:06:30;;;;;;;3.55;1.67;;;;;;;;;;5052293;28;20056;-77